Time;durP1;ratioP1;P1;durP2;ratioP2;P2;SDS_P1;SDS_P2;PMS_P1;PMS_P2;Temp;Humidity;BMP_temperature;BMP_pressure;BME280_temperature;BME280_humidity;BME280_pressure;Samples;Min_cycle;Max_cycle;Signal;HPM_P1;HPM_P2
2023/03/12 00:02:20;;;;;;;7.80;4.47;;;;;;;;;;4981418;28;20046;-78
2023/03/12 00:04:47;;;;;;;9.60;4.63;;;;;;;;;;4977984;28;20432;-80
2023/03/12 00:07:13;;;;;;;7.10;3.80;;;;;;;;;;4976157;28;20141;-79
2023/03/12 00:09:39;;;;;;;8.73;4.07;;;;;;;;;;4976785;28;20023;-83
2023/03/12 00:12:05;;;;;;;8.35;3.92;;;;;;;;;;4983104;28;20476;-83
2023/03/12 00:14:31;;;;;;;10.02;4.13;;;;;;;;;;4980574;28;20184;-81
2023/03/12 00:16:58;;;;;;;8.52;3.83;;;;;;;;;;4982201;28;20283;-76
2023/03/12 00:19:24;;;;;;;12.95;4.07;;;;;;;;;;4975066;28;20043;-78
2023/03/12 00:21:50;;;;;;;10.00;3.47;;;;;;;;;;4973035;28;20039;-80
2023/03/12 00:24:16;;;;;;;7.45;4.78;;;;;;;;;;4989273;28;20058;-77
2023/03/12 00:26:42;;;;;;;9.50;3.50;;;;;;;;;;4986387;28;20391;-79
2023/03/12 00:29:08;;;;;;;7.55;3.70;;;;;;;;;;4986933;28;20042;-80
2023/03/12 00:31:35;;;;;;;8.82;4.00;;;;;;;;;;4965049;28;20108;-79
2023/03/12 00:34:01;;;;;;;9.43;4.20;;;;;;;;;;4987895;28;20105;-80
2023/03/12 00:36:29;;;;;;;8.00;3.33;;;;;;;;;;4986115;28;20041;-81
2023/03/12 00:38:55;;;;;;;5.30;3.28;;;;;;;;;;4970948;28;20084;-82
2023/03/12 00:41:22;;;;;;;6.32;3.67;;;;;;;;;;4978612;28;20034;-80
2023/03/12 00:43:49;;;;;;;8.98;3.95;;;;;;;;;;4985772;28;20031;-82
2023/03/12 00:46:15;;;;;;;10.88;3.78;;;;;;;;;;4978048;28;20023;-80
2023/03/12 00:48:41;;;;;;;11.85;4.40;;;;;;;;;;4968296;28;20042;-82
2023/03/12 00:51:08;;;;;;;7.88;3.88;;;;;;;;;;4982111;28;20035;-82
2023/03/12 00:53:34;;;;;;;9.98;3.50;;;;;;;;;;4985048;28;20038;-81
2023/03/12 00:56:00;;;;;;;6.03;3.53;;;;;;;;;;4987389;28;20026;-81
2023/03/12 00:58:26;;;;;;;10.32;3.20;;;;;;;;;;4990800;28;20113;-82
2023/03/12 01:00:52;;;;;;;5.00;2.72;;;;;;;;;;4983928;28;20033;-82
2023/03/12 01:03:18;;;;;;;11.73;3.40;;;;;;;;;;4974662;28;20153;-83
2023/03/12 01:05:44;;;;;;;5.80;3.25;;;;;;;;;;4991863;28;20042;-80
2023/03/12 01:08:10;;;;;;;8.73;4.38;;;;;;;;;;4990204;28;20049;-79
2023/03/12 01:10:40;;;;;;;7.53;4.20;;;;;;;;;;4973804;28;20391;-80
2023/03/12 01:13:06;;;;;;;14.38;4.47;;;;;;;;;;4965190;28;20053;-84
2023/03/12 01:15:32;;;;;;;17.08;4.35;;;;;;;;;;4986775;28;20133;-79
2023/03/12 01:17:58;;;;;;;10.52;3.85;;;;;;;;;;4985896;28;20062;-81
2023/03/12 01:20:24;;;;;;;12.65;4.32;;;;;;;;;;4991606;28;20027;-79
2023/03/12 01:22:51;;;;;;;8.35;4.05;;;;;;;;;;4982139;28;20035;-79
2023/03/12 01:25:17;;;;;;;12.98;4.28;;;;;;;;;;4990985;28;20057;-79
2023/03/12 01:27:43;;;;;;;7.50;4.18;;;;;;;;;;4982288;28;20506;-80
2023/03/12 01:30:10;;;;;;;15.43;5.18;;;;;;;;;;4988139;28;20030;-80
2023/03/12 01:32:36;;;;;;;9.10;5.10;;;;;;;;;;4984650;28;20097;-79
2023/03/12 01:35:02;;;;;;;8.02;4.47;;;;;;;;;;4978702;28;20093;-79
2023/03/12 01:37:28;;;;;;;9.98;3.95;;;;;;;;;;4985996;28;20030;-79
2023/03/12 01:39:54;;;;;;;9.98;4.28;;;;;;;;;;4990508;28;20046;-79
2023/03/12 01:42:20;;;;;;;8.70;4.68;;;;;;;;;;4990456;28;20049;-77
2023/03/12 01:44:49;;;;;;;8.00;4.47;;;;;;;;;;4977496;28;20038;-79
2023/03/12 01:47:15;;;;;;;7.60;4.18;;;;;;;;;;4989043;28;20062;-76
2023/03/12 01:49:41;;;;;;;10.07;4.30;;;;;;;;;;4989668;28;20042;-79
2023/03/12 01:52:10;;;;;;;8.98;4.75;;;;;;;;;;4970472;28;20023;-78
2023/03/12 01:54:39;;;;;;;11.48;5.15;;;;;;;;;;4989856;28;20097;-80
2023/03/12 01:57:08;;;;;;;6.03;4.53;;;;;;;;;;4976372;28;20097;-80
2023/03/12 01:59:40;;;;;;;8.90;4.03;;;;;;;;;;4990368;28;20041;-79
2023/03/12 02:02:06;;;;;;;;;;;;;;;;;;4986593;28;20515;-81
2023/03/12 02:04:33;;;;;;;15.07;4.40;;;;;;;;;;4975054;28;20301;-80
2023/03/12 02:07:04;;;;;;;9.65;4.65;;;;;;;;;;4976082;28;20549;-81
2023/03/12 02:09:32;;;;;;;8.55;4.80;;;;;;;;;;4988699;28;20061;-80
2023/03/12 02:11:58;;;;;;;8.95;4.68;;;;;;;;;;4993211;28;20030;-80
2023/03/12 02:14:24;;;;;;;8.20;4.53;;;;;;;;;;4989108;28;20092;-79
2023/03/12 02:16:50;;;;;;;11.07;5.07;;;;;;;;;;4965574;28;20039;-79
2023/03/12 02:19:22;;;;;;;8.48;4.93;;;;;;;;;;4985512;28;20030;-79
2023/03/12 02:21:48;;;;;;;6.82;4.78;;;;;;;;;;4994399;28;20934;-78
2023/03/12 02:24:32;;;;;;;15.23;5.05;;;;;;;;;;4989203;28;20045;-79
2023/03/12 02:26:59;;;;;;;8.48;4.78;;;;;;;;;;4991926;28;20380;-79
2023/03/12 02:29:26;;;;;;;14.25;6.28;;;;;;;;;;4989403;28;20031;-77
2023/03/12 02:31:55;;;;;;;15.50;5.47;;;;;;;;;;4991161;28;20057;-79
2023/03/12 02:34:22;;;;;;;11.07;4.95;;;;;;;;;;4990553;28;20041;-78
2023/03/12 02:36:48;;;;;;;10.60;5.20;;;;;;;;;;4972477;28;20039;-78
2023/03/12 02:39:14;;;;;;;13.40;5.40;;;;;;;;;;4986011;28;20376;-79
2023/03/12 02:41:54;;;;;;;13.38;5.25;;;;;;;;;;4989232;28;20049;-76
2023/03/12 02:44:22;;;;;;;9.18;4.95;;;;;;;;;;4969460;28;20038;-76
2023/03/12 02:46:53;;;;;;;12.23;4.97;;;;;;;;;;4979681;28;20035;-79
2023/03/12 02:49:20;;;;;;;11.20;5.32;;;;;;;;;;4968030;28;20034;-79
2023/03/12 02:51:47;;;;;;;9.27;4.28;;;;;;;;;;4976895;28;20034;-77
2023/03/12 02:54:13;;;;;;;9.15;4.63;;;;;;;;;;4984057;28;20048;-78
2023/03/12 02:56:40;;;;;;;9.23;4.28;;;;;;;;;;4982597;28;20117;-80
2023/03/12 02:59:06;;;;;;;12.38;4.28;;;;;;;;;;4989434;28;20038;-80
2023/03/12 03:01:33;;;;;;;9.95;4.40;;;;;;;;;;4972810;28;20136;-78
2023/03/12 03:03:59;;;;;;;12.07;4.13;;;;;;;;;;4992569;28;20034;-80
2023/03/12 03:06:25;;;;;;;5.93;3.67;;;;;;;;;;4973173;28;20034;-80
2023/03/12 03:08:51;;;;;;;13.25;3.97;;;;;;;;;;4974342;28;20027;-81
2023/03/12 03:11:18;;;;;;;7.25;4.10;;;;;;;;;;4987475;28;20041;-81
2023/03/12 03:13:44;;;;;;;7.40;4.60;;;;;;;;;;4959270;28;20632;-80
2023/03/12 03:16:12;;;;;;;7.50;3.58;;;;;;;;;;4984357;28;20415;-79
2023/03/12 03:18:38;;;;;;;10.25;3.45;;;;;;;;;;4991888;28;20031;-78
2023/03/12 03:21:05;;;;;;;9.20;3.70;;;;;;;;;;4991445;28;20042;-80
2023/03/12 03:23:31;;;;;;;7.13;3.42;;;;;;;;;;4973097;28;20036;-78
2023/03/12 03:25:58;;;;;;;8.07;4.68;;;;;;;;;;4991053;28;20023;-79
2023/03/12 03:28:25;;;;;;;6.72;3.20;;;;;;;;;;4975436;28;20069;-79
2023/03/12 03:30:57;;;;;;;5.82;2.88;;;;;;;;;;4973985;28;20035;-78
2023/03/12 03:33:23;;;;;;;6.63;3.33;;;;;;;;;;4975834;28;20134;-77
2023/03/12 03:35:49;;;;;;;4.93;2.83;;;;;;;;;;4972706;28;20134;-78
2023/03/12 03:38:15;;;;;;;9.30;2.75;;;;;;;;;;4983764;28;20038;-76
2023/03/12 03:40:42;;;;;;;5.18;2.92;;;;;;;;;;5011730;28;20034;-78
2023/03/12 03:43:08;;;;;;;7.38;3.08;;;;;;;;;;4980250;28;20046;-79
2023/03/12 03:45:34;;;;;;;9.13;3.05;;;;;;;;;;4985393;28;20093;-78
2023/03/12 03:48:00;;;;;;;8.52;3.65;;;;;;;;;;4964205;28;20030;-78
2023/03/12 03:50:26;;;;;;;9.35;2.85;;;;;;;;;;4989242;28;20038;-79
2023/03/12 03:52:53;;;;;;;9.70;3.08;;;;;;;;;;4987211;28;20041;-78
2023/03/12 03:55:19;;;;;;;9.55;2.90;;;;;;;;;;4988099;28;20034;-78
2023/03/12 03:57:45;;;;;;;7.43;3.13;;;;;;;;;;4985574;28;20052;-79
2023/03/12 04:00:12;;;;;;;8.77;3.55;;;;;;;;;;4973416;28;20322;-79
2023/03/12 04:02:38;;;;;;;6.93;2.88;;;;;;;;;;4984693;28;20085;-79
2023/03/12 04:05:04;;;;;;;11.90;4.40;;;;;;;;;;4988572;28;20567;-79
2023/03/12 04:07:31;;;;;;;13.95;3.33;;;;;;;;;;4990341;28;20031;-79
2023/03/12 04:09:57;;;;;;;7.95;3.10;;;;;;;;;;4985613;28;20018;-81
2023/03/12 04:12:24;;;;;;;7.40;3.60;;;;;;;;;;4990885;28;20046;-79
2023/03/12 04:14:51;;;;;;;6.47;3.00;;;;;;;;;;4986902;28;20033;-78
2023/03/12 04:17:17;;;;;;;7.72;3.75;;;;;;;;;;4984879;28;20165;-78
2023/03/12 04:19:43;;;;;;;7.18;3.05;;;;;;;;;;4987277;28;20053;-78
2023/03/12 04:22:09;;;;;;;7.00;2.75;;;;;;;;;;4991743;28;20026;-79
2023/03/12 04:24:35;;;;;;;13.60;4.22;;;;;;;;;;4982473;28;20053;-78
2023/03/12 04:27:01;;;;;;;7.47;3.17;;;;;;;;;;4990837;28;20041;-79
2023/03/12 04:29:27;;;;;;;4.10;2.70;;;;;;;;;;4986145;28;20525;-79
2023/03/12 04:31:54;;;;;;;9.15;3.33;;;;;;;;;;4983849;28;20026;-80
2023/03/12 04:34:20;;;;;;;8.88;3.00;;;;;;;;;;4989357;28;20046;-79
2023/03/12 04:36:46;;;;;;;6.93;3.15;;;;;;;;;;4990952;28;20038;-77
2023/03/12 04:39:12;;;;;;;5.13;3.20;;;;;;;;;;4970455;28;20061;-78
2023/03/12 04:41:38;;;;;;;11.88;3.63;;;;;;;;;;4985435;28;20427;-78
2023/03/12 04:44:05;;;;;;;6.75;3.28;;;;;;;;;;4973169;28;20129;-79
2023/03/12 04:46:31;;;;;;;5.25;3.25;;;;;;;;;;4960819;28;20033;-78
2023/03/12 04:48:57;;;;;;;10.43;2.95;;;;;;;;;;4991143;28;20110;-80
2023/03/12 04:51:23;;;;;;;7.50;2.88;;;;;;;;;;4983774;28;20184;-79
2023/03/12 04:53:50;;;;;;;12.43;3.00;;;;;;;;;;4986652;28;20031;-77
2023/03/12 04:56:16;;;;;;;22.67;4.60;;;;;;;;;;4985217;28;20066;-78
2023/03/12 04:58:42;;;;;;;10.70;5.57;;;;;;;;;;4986317;28;20022;-79
2023/03/12 05:01:17;;;;;;;6.65;3.90;;;;;;;;;;4969723;28;20049;-78
2023/03/12 05:03:43;;;;;;;5.35;2.83;;;;;;;;;;4980092;28;20096;-79
2023/03/12 05:06:09;;;;;;;11.45;3.40;;;;;;;;;;4959663;28;20030;-79
2023/03/12 05:08:35;;;;;;;6.78;3.15;;;;;;;;;;4991438;28;20037;-78
2023/03/12 05:11:02;;;;;;;8.80;2.97;;;;;;;;;;4986076;28;20026;-80
2023/03/12 05:13:28;;;;;;;8.25;2.67;;;;;;;;;;4986475;28;20034;-79
2023/03/12 05:15:54;;;;;;;9.15;2.95;;;;;;;;;;4977392;28;20046;-78
2023/03/12 05:18:20;;;;;;;7.32;3.08;;;;;;;;;;4982708;28;20026;-77
2023/03/12 05:20:46;;;;;;;7.35;3.35;;;;;;;;;;4987080;28;20117;-77
2023/03/12 05:23:12;;;;;;;8.45;2.75;;;;;;;;;;4975279;28;20026;-77
2023/03/12 05:25:40;;;;;;;7.60;3.67;;;;;;;;;;4981359;28;20027;-76
2023/03/12 05:28:06;;;;;;;8.68;3.40;;;;;;;;;;4967308;28;20571;-78
2023/03/12 05:30:32;;;;;;;13.30;7.22;;;;;;;;;;4979199;28;20518;-78
2023/03/12 05:32:58;;;;;;;8.30;2.80;;;;;;;;;;4980551;28;20402;-83
2023/03/12 05:35:24;;;;;;;6.97;3.10;;;;;;;;;;4990175;28;20431;-81
2023/03/12 05:37:50;;;;;;;16.17;3.83;;;;;;;;;;4985646;28;20537;-81
2023/03/12 05:40:16;;;;;;;7.90;3.25;;;;;;;;;;4990068;28;20476;-81
2023/03/12 05:42:42;;;;;;;8.77;3.58;;;;;;;;;;4986207;28;20403;-80
2023/03/12 05:45:08;;;;;;;6.78;3.10;;;;;;;;;;4969258;28;20030;-81
2023/03/12 05:47:34;;;;;;;6.72;3.00;;;;;;;;;;4980483;28;20051;-80
2023/03/12 05:50:00;;;;;;;7.55;3.15;;;;;;;;;;4981002;28;20062;-78
2023/03/12 05:52:26;;;;;;;7.15;2.80;;;;;;;;;;4968323;28;20027;-79
2023/03/12 05:54:53;;;;;;;9.85;3.65;;;;;;;;;;4983561;28;20108;-79
2023/03/12 05:57:19;;;;;;;6.20;3.80;;;;;;;;;;4970407;28;20376;-78
2023/03/12 05:59:45;;;;;;;6.75;3.03;;;;;;;;;;4988621;28;20150;-80
2023/03/12 06:02:11;;;;;;;8.50;3.40;;;;;;;;;;4978746;28;20054;-83
2023/03/12 06:04:37;;;;;;;8.27;3.38;;;;;;;;;;4985289;28;20049;-83
2023/03/12 06:07:03;;;;;;;7.03;3.97;;;;;;;;;;4966656;28;20324;-81
2023/03/12 06:09:29;;;;;;;12.50;4.40;;;;;;;;;;4984990;28;20043;-83
2023/03/12 06:11:55;;;;;;;13.10;3.83;;;;;;;;;;4984288;28;20038;-83
2023/03/12 06:14:21;;;;;;;5.53;3.47;;;;;;;;;;4989491;28;20042;-80
2023/03/12 06:16:47;;;;;;;8.27;3.05;;;;;;;;;;4976321;28;20113;-81
2023/03/12 06:19:13;;;;;;;12.43;5.45;;;;;;;;;;4989723;28;20106;-80
2023/03/12 06:21:39;;;;;;;6.88;3.67;;;;;;;;;;4987234;28;20468;-79
2023/03/12 06:24:05;;;;;;;10.93;3.28;;;;;;;;;;4978870;28;20047;-82
2023/03/12 06:26:31;;;;;;;5.72;3.42;;;;;;;;;;4990989;28;20606;-81
2023/03/12 06:28:58;;;;;;;5.05;2.95;;;;;;;;;;4987440;28;20042;-82
2023/03/12 06:31:24;;;;;;;13.32;4.15;;;;;;;;;;4972484;28;20091;-81
2023/03/12 06:33:50;;;;;;;8.00;3.88;;;;;;;;;;4986156;28;20034;-81
2023/03/12 06:36:17;;;;;;;8.80;3.20;;;;;;;;;;4990648;28;20446;-81
2023/03/12 06:38:43;;;;;;;9.10;3.55;;;;;;;;;;4986367;28;20464;-81
2023/03/12 06:41:10;;;;;;;8.05;3.78;;;;;;;;;;4991174;28;20088;-82
2023/03/12 06:43:37;;;;;;;10.02;3.72;;;;;;;;;;4989421;28;20045;-82
2023/03/12 06:46:03;;;;;;;7.35;3.90;;;;;;;;;;4985030;28;20035;-82
2023/03/12 06:48:32;;;;;;;9.80;3.28;;;;;;;;;;4964848;28;20443;-80
2023/03/12 06:50:58;;;;;;;11.27;3.97;;;;;;;;;;4994044;28;20096;-82
2023/03/12 06:53:24;;;;;;;13.57;4.30;;;;;;;;;;4986756;28;20043;-80
2023/03/12 06:55:51;;;;;;;9.27;4.47;;;;;;;;;;4985687;28;20085;-79
2023/03/12 06:58:17;;;;;;;15.48;5.38;;;;;;;;;;4962809;28;20043;-80
2023/03/12 07:00:44;;;;;;;9.50;4.15;;;;;;;;;;4983652;28;20040;-78
2023/03/12 07:03:10;;;;;;;6.95;4.15;;;;;;;;;;4993260;28;20063;-83
2023/03/12 07:05:36;;;;;;;13.75;5.20;;;;;;;;;;4990595;28;20054;-84
2023/03/12 07:08:02;;;;;;;9.43;4.68;;;;;;;;;;4991304;28;20037;-84
2023/03/12 07:10:28;;;;;;;9.52;3.80;;;;;;;;;;4991013;28;20030;-82
2023/03/12 07:12:55;;;;;;;9.02;4.07;;;;;;;;;;4993649;28;20491;-80
2023/03/12 07:15:21;;;;;;;9.27;4.05;;;;;;;;;;4986142;28;20096;-79
2023/03/12 07:17:47;;;;;;;9.32;4.38;;;;;;;;;;4993289;28;20043;-79
2023/03/12 07:20:13;;;;;;;8.57;4.80;;;;;;;;;;4986545;28;20027;-80
2023/03/12 07:22:39;;;;;;;8.85;4.28;;;;;;;;;;4974506;28;20034;-79
2023/03/12 07:25:06;;;;;;;10.10;4.38;;;;;;;;;;4989125;28;20113;-80
2023/03/12 07:27:32;;;;;;;12.80;4.95;;;;;;;;;;4993061;28;20045;-79
2023/03/12 07:29:58;;;;;;;9.25;5.32;;;;;;;;;;4989022;28;20027;-80
2023/03/12 07:32:24;;;;;;;9.88;4.88;;;;;;;;;;4975837;28;20031;-79
2023/03/12 07:34:50;;;;;;;7.60;3.78;;;;;;;;;;4971932;28;20042;-78
2023/03/12 07:37:16;;;;;;;8.52;3.90;;;;;;;;;;4982084;28;20038;-78
2023/03/12 07:39:43;;;;;;;8.00;4.10;;;;;;;;;;4987759;28;20038;-80
2023/03/12 07:42:11;;;;;;;12.27;5.35;;;;;;;;;;4987815;28;20399;-79
2023/03/12 07:44:37;;;;;;;7.47;4.55;;;;;;;;;;4991568;28;20037;-78
2023/03/12 07:47:03;;;;;;;11.85;4.70;;;;;;;;;;4986997;28;20677;-81
2023/03/12 07:49:30;;;;;;;9.65;4.60;;;;;;;;;;4987379;28;20034;-80
2023/03/12 07:51:56;;;;;;;9.30;4.63;;;;;;;;;;4986206;28;20081;-80
2023/03/12 07:54:24;;;;;;;6.85;4.47;;;;;;;;;;4991267;28;20514;-79
2023/03/12 07:56:50;;;;;;;13.35;4.50;;;;;;;;;;4982553;28;20093;-80
2023/03/12 07:59:18;;;;;;;12.25;5.05;;;;;;;;;;4976016;28;20026;-80
2023/03/12 08:01:44;;;;;;;11.07;4.75;;;;;;;;;;4988543;28;20488;-80
2023/03/12 08:04:10;;;;;;;11.05;4.50;;;;;;;;;;4971673;28;20035;-82
2023/03/12 08:06:41;;;;;;;8.95;4.50;;;;;;;;;;4985467;28;20030;-85
2023/03/12 08:09:07;;;;;;;10.18;4.53;;;;;;;;;;4955670;28;20042;-85
2023/03/12 08:11:33;;;;;;;14.52;5.82;;;;;;;;;;4970673;28;20030;-82
2023/03/12 08:13:59;;;;;;;8.07;4.95;;;;;;;;;;4992675;28;20046;-81
2023/03/12 08:16:25;;;;;;;12.27;5.50;;;;;;;;;;4984015;28;20027;-80
2023/03/12 08:18:51;;;;;;;12.05;5.18;;;;;;;;;;4990102;28;20049;-80
2023/03/12 08:21:19;;;;;;;11.88;5.95;;;;;;;;;;4989259;28;20030;-80
2023/03/12 08:23:45;;;;;;;12.90;6.05;;;;;;;;;;4973788;28;20039;-82
2023/03/12 08:26:11;;;;;;;10.00;6.85;;;;;;;;;;4989155;28;20089;-82
2023/03/12 08:28:37;;;;;;;15.25;5.75;;;;;;;;;;4983535;28;20510;-82
2023/03/12 08:31:03;;;;;;;11.32;5.38;;;;;;;;;;4991296;28;20075;-84
2023/03/12 08:33:29;;;;;;;13.38;5.78;;;;;;;;;;4988128;28;20074;-82
2023/03/12 08:35:56;;;;;;;12.02;6.10;;;;;;;;;;4989524;28;20057;-82
2023/03/12 08:38:22;;;;;;;14.02;5.93;;;;;;;;;;4987286;28;20034;-82
2023/03/12 08:40:55;;;;;;;15.50;6.45;;;;;;;;;;4988128;28;20042;-81
2023/03/12 08:43:21;;;;;;;13.95;6.43;;;;;;;;;;4982124;28;20050;-81
2023/03/12 08:45:52;;;;;;;8.98;4.45;;;;;;;;;;4991551;28;20487;-81
2023/03/12 08:48:18;;;;;;;11.18;7.28;;;;;;;;;;4972327;28;20117;-82
2023/03/12 08:50:44;;;;;;;9.13;5.10;;;;;;;;;;4988272;28;20073;-82
2023/03/12 08:53:10;;;;;;;15.82;6.03;;;;;;;;;;4986389;28;20046;-82
2023/03/12 08:55:36;;;;;;;9.10;5.13;;;;;;;;;;4990834;28;20083;-80
2023/03/12 08:58:03;;;;;;;8.15;5.53;;;;;;;;;;4966495;28;20110;-85
2023/03/12 09:00:29;;;;;;;15.90;5.72;;;;;;;;;;4951936;28;20078;-79
2023/03/12 09:02:57;;;;;;;15.23;7.03;;;;;;;;;;4979697;28;20061;-81
2023/03/12 09:05:23;;;;;;;10.38;6.80;;;;;;;;;;4985758;28;20534;-81
2023/03/12 09:07:49;;;;;;;12.68;6.38;;;;;;;;;;4990369;28;20140;-83
2023/03/12 09:10:16;;;;;;;10.60;6.68;;;;;;;;;;4973553;28;20037;-83
2023/03/12 09:12:43;;;;;;;11.88;5.93;;;;;;;;;;4970396;28;20034;-82
2023/03/12 09:15:09;;;;;;;13.60;6.43;;;;;;;;;;4984182;28;20030;-82
2023/03/12 09:17:35;;;;;;;10.73;6.30;;;;;;;;;;4988626;28;20038;-81
2023/03/12 09:20:05;;;;;;;9.95;6.30;;;;;;;;;;4985573;28;20041;-81
2023/03/12 09:22:31;;;;;;;9.88;6.15;;;;;;;;;;4977022;28;20041;-75
2023/03/12 09:24:57;;;;;;;11.35;6.68;;;;;;;;;;4985803;28;20107;-82
2023/03/12 09:27:23;;;;;;;15.25;8.35;;;;;;;;;;4963853;28;20030;-78
2023/03/12 09:29:50;;;;;;;11.60;6.35;;;;;;;;;;4989336;28;20112;-76
2023/03/12 09:32:16;;;;;;;13.40;5.95;;;;;;;;;;4962660;28;20711;-76
2023/03/12 09:34:42;;;;;;;9.55;6.18;;;;;;;;;;4966672;28;20042;-80
2023/03/12 09:37:08;;;;;;;27.25;16.80;;;;;;;;;;4981579;28;20085;-80
2023/03/12 09:39:34;;;;;;;12.48;7.38;;;;;;;;;;4990920;28;20041;-83
2023/03/12 09:42:01;;;;;;;12.40;5.95;;;;;;;;;;4989633;28;20065;-84
2023/03/12 09:44:33;;;;;;;10.65;6.45;;;;;;;;;;4986640;28;20045;-75
2023/03/12 09:47:11;;;;;;;10.27;6.03;;;;;;;;;;4970987;28;20049;-77
2023/03/12 09:49:37;;;;;;;19.58;13.75;;;;;;;;;;4983707;28;20030;-77
2023/03/12 09:52:07;;;;;;;8.13;6.18;;;;;;;;;;4983419;28;20480;-81
2023/03/12 09:54:39;;;;;;;8.75;5.78;;;;;;;;;;4985662;28;20035;-79
2023/03/12 09:57:10;;;;;;;10.35;6.28;;;;;;;;;;4991417;28;20041;-83
2023/03/12 09:59:36;;;;;;;123.50;72.05;;;;;;;;;;4985514;28;20438;-77
2023/03/12 10:02:05;;;;;;;93.70;48.47;;;;;;;;;;4986933;28;20055;-80
2023/03/12 10:04:31;;;;;;;9.75;6.30;;;;;;;;;;4990199;28;20085;-83
2023/03/12 10:07:16;;;;;;;7.82;5.20;;;;;;;;;;4970300;28;20026;-79
2023/03/12 10:09:48;;;;;;;10.07;7.13;;;;;;;;;;4969932;28;20487;-76
2023/03/12 10:12:19;;;;;;;10.88;7.10;;;;;;;;;;4985857;28;20471;-78
2023/03/12 10:14:59;;;;;;;9.07;7.00;;;;;;;;;;4988548;28;20383;-81
2023/03/12 10:17:31;;;;;;;14.82;7.93;;;;;;;;;;4990846;28;20034;-78
2023/03/12 10:20:16;;;;;;;19.00;7.30;;;;;;;;;;4991261;28;20117;-77
2023/03/12 10:22:42;;;;;;;11.43;7.22;;;;;;;;;;4982570;28;20175;-77
2023/03/12 10:25:11;;;;;;;12.02;7.75;;;;;;;;;;4989812;28;20026;-75
2023/03/12 10:27:38;;;;;;;13.68;7.70;;;;;;;;;;4988962;28;20043;-77
2023/03/12 10:30:13;;;;;;;12.50;7.82;;;;;;;;;;4992130;28;20030;-78
2023/03/12 10:32:45;;;;;;;11.38;7.18;;;;;;;;;;4991027;28;20117;-76
2023/03/12 10:35:22;;;;;;;13.60;7.88;;;;;;;;;;4987887;28;20050;-77
2023/03/12 10:37:51;;;;;;;12.38;7.28;;;;;;;;;;4987872;28;20034;-76
2023/03/12 10:40:22;;;;;;;15.50;7.68;;;;;;;;;;4982465;28;20633;-77
2023/03/12 10:42:48;;;;;;;14.15;8.00;;;;;;;;;;4991366;28;20034;-79
2023/03/12 10:45:20;;;;;;;13.48;8.82;;;;;;;;;;4968151;28;20164;-79
2023/03/12 10:47:50;;;;;;;13.82;10.05;;;;;;;;;;4983619;28;20089;-79
2023/03/12 10:50:21;;;;;;;15.25;8.45;;;;;;;;;;4992774;28;20118;-82
2023/03/12 10:52:48;;;;;;;11.45;8.45;;;;;;;;;;4987323;28;20026;-85
2023/03/12 10:55:20;;;;;;;15.70;9.38;;;;;;;;;;4981473;28;20030;-76
2023/03/12 10:57:46;;;;;;;18.45;10.35;;;;;;;;;;4986511;28;20098;-77
2023/03/12 11:00:18;;;;;;;14.50;8.82;;;;;;;;;;4989791;28;20030;-78
2023/03/12 11:02:45;;;;;;;18.83;11.32;;;;;;;;;;4990372;28;20048;-77
2023/03/12 11:05:19;;;;;;;36.72;20.52;;;;;;;;;;4988493;28;20042;-79
2023/03/12 11:07:45;;;;;;;17.30;9.98;;;;;;;;;;4987869;28;20379;-78
2023/03/12 11:10:13;;;;;;;14.85;9.32;;;;;;;;;;4973844;28;20061;-79
2023/03/12 11:12:39;;;;;;;13.93;10.27;;;;;;;;;;4983304;28;20036;-76
2023/03/12 11:15:17;;;;;;;17.02;10.20;;;;;;;;;;4973952;28;20046;-85
2023/03/12 11:17:43;;;;;;;17.40;11.00;;;;;;;;;;4988239;28;20040;-78
2023/03/12 11:20:26;;;;;;;17.42;10.00;;;;;;;;;;4997891;28;20423;-87
2023/03/12 11:22:52;;;;;;;15.23;10.20;;;;;;;;;;4983514;28;20494;-76
2023/03/12 11:25:28;;;;;;;17.88;11.23;;;;;;;;;;4986814;28;20099;-76
2023/03/12 11:28:01;;;;;;;17.40;11.23;;;;;;;;;;4989639;28;21035;-80
2023/03/12 11:30:34;;;;;;;17.30;11.70;;;;;;;;;;4986349;28;20057;-79
2023/03/12 11:33:01;;;;;;;23.88;13.85;;;;;;;;;;4992215;28;20035;-81
2023/03/12 11:35:44;;;;;;;22.08;13.88;;;;;;;;;;4983237;28;20030;-80
2023/03/12 11:38:21;;;;;;;22.70;15.70;;;;;;;;;;4988735;28;20038;-77
2023/03/12 11:40:56;;;;;;;25.70;14.38;;;;;;;;;;4980273;28;20027;-76
2023/03/12 11:43:33;;;;;;;20.98;12.95;;;;;;;;;;4981252;28;20065;-77
2023/03/12 11:46:09;;;;;;;20.25;12.73;;;;;;;;;;4986722;28;20232;-77
2023/03/12 11:48:41;;;;;;;18.58;11.45;;;;;;;;;;4989610;28;20503;-78
2023/03/12 11:51:07;;;;;;;15.75;11.73;;;;;;;;;;4992526;28;20090;-80
2023/03/12 11:53:36;;;;;;;17.65;11.57;;;;;;;;;;4990899;28;20521;-80
2023/03/12 11:56:18;;;;;;;17.30;11.90;;;;;;;;;;4989743;28;20053;-80
2023/03/12 11:58:50;;;;;;;16.67;11.52;;;;;;;;;;4986808;28;20030;-79
2023/03/12 12:01:25;;;;;;;18.30;11.25;;;;;;;;;;4963637;28;20055;-78
2023/03/12 12:03:51;;;;;;;20.20;12.10;;;;;;;;;;4984013;28;20085;-79
2023/03/12 12:06:32;;;;;;;19.17;13.15;;;;;;;;;;4993061;28;20034;-77
2023/03/12 12:09:02;;;;;;;19.50;13.10;;;;;;;;;;4973631;28;20041;-78
2023/03/12 12:11:45;;;;;;;23.58;14.02;;;;;;;;;;4988740;28;20041;-86
2023/03/12 12:14:12;;;;;;;25.95;14.07;;;;;;;;;;4986221;28;20051;-83
2023/03/12 12:16:57;;;;;;;26.70;15.00;;;;;;;;;;4980962;28;20059;-76
2023/03/12 12:19:43;;;;;;;32.60;16.75;;;;;;;;;;4975378;28;20042;-83
2023/03/12 12:22:09;;;;;;;37.53;18.38;;;;;;;;;;4979609;28;20432;-88
2023/03/12 12:24:43;;;;;;;30.63;15.77;;;;;;;;;;4989934;28;20085;-87
2023/03/12 12:27:25;;;;;;;35.40;16.67;;;;;;;;;;4996452;28;20034;-82
2023/03/12 12:30:09;;;;;;;47.63;15.45;;;;;;;;;;4986749;28;20037;-83
2023/03/12 12:32:42;;;;;;;34.35;14.85;;;;;;;;;;4984793;28;20069;-86
2023/03/12 12:35:25;;;;;;;36.92;12.73;;;;;;;;;;4988727;28;20172;-84
2023/03/12 12:38:09;;;;;;;36.38;11.30;;;;;;;;;;4983057;28;20084;-85
2023/03/12 12:40:36;;;;;;;37.28;10.50;;;;;;;;;;4987020;28;20045;-89
2023/03/12 12:43:05;;;;;;;34.97;9.60;;;;;;;;;;4997553;28;20033;-91
2023/03/12 12:45:31;;;;;;;40.60;8.57;;;;;;;;;;4988108;28;20479;-80
2023/03/12 12:48:18;;;;;;;32.03;8.50;;;;;;;;;;4993896;28;20026;-88
2023/03/12 12:50:46;;;;;;;39.70;8.45;;;;;;;;;;4990323;28;20562;-85
2023/03/12 12:53:25;;;;;;;35.00;6.75;;;;;;;;;;4988354;28;20071;-85
2023/03/12 12:55:59;;;;;;;33.83;7.25;;;;;;;;;;4989258;28;20031;-83
2023/03/12 12:58:40;;;;;;;35.60;6.90;;;;;;;;;;4985171;28;20034;-85
2023/03/12 13:01:08;;;;;;;38.55;7.05;;;;;;;;;;4984935;28;20027;-89
2023/03/12 13:03:34;;;;;;;34.97;6.70;;;;;;;;;;4976056;28;20057;-87
2023/03/12 13:06:04;;;;;;;26.50;5.07;;;;;;;;;;4989998;28;20588;-84
2023/03/12 13:08:56;;;;;;;31.63;7.03;;;;;;;;;;4990637;28;20081;-85
2023/03/12 13:11:22;;;;;;;24.85;6.07;;;;;;;;;;4992710;28;20067;-86
2023/03/12 13:14:09;;;;;;;31.98;7.63;;;;;;;;;;4992147;28;20045;-81
2023/03/12 13:16:36;;;;;;;27.58;5.95;;;;;;;;;;4981148;28;20054;-78
2023/03/12 13:19:08;;;;;;;27.95;5.05;;;;;;;;;;4983782;28;20030;-83
2023/03/12 13:21:34;;;;;;;35.43;6.60;;;;;;;;;;4991227;28;20383;-82
2023/03/12 13:24:22;;;;;;;27.48;6.38;;;;;;;;;;4989581;28;20511;-81
2023/03/12 13:26:51;;;;;;;32.80;5.70;;;;;;;;;;4985295;28;20109;-81
2023/03/12 13:29:22;;;;;;;38.72;5.68;;;;;;;;;;4985562;28;20030;-83
2023/03/12 13:31:48;;;;;;;33.72;7.28;;;;;;;;;;4990343;28;20039;-79
2023/03/12 13:34:17;;;;;;;31.33;6.25;;;;;;;;;;4968238;28;20058;-79
2023/03/12 13:36:45;;;;;;;27.73;4.88;;;;;;;;;;4991475;28;20030;-80
2023/03/12 13:39:30;;;;;;;29.20;5.97;;;;;;;;;;4989241;28;20034;-80
2023/03/12 13:41:57;;;;;;;36.90;6.05;;;;;;;;;;4989611;28;20030;-80
2023/03/12 13:44:33;;;;;;;35.70;7.53;;;;;;;;;;4979445;28;20041;-82
2023/03/12 13:47:01;;;;;;;36.50;7.35;;;;;;;;;;4986763;28;20018;-83
2023/03/12 13:49:41;;;;;;;35.75;6.47;;;;;;;;;;4970892;28;20113;-79
2023/03/12 13:52:10;;;;;;;34.10;6.22;;;;;;;;;;4992834;28;20604;-83
2023/03/12 13:54:40;;;;;;;32.63;5.15;;;;;;;;;;4985109;28;20101;-87
2023/03/12 13:57:26;;;;;;;27.25;5.50;;;;;;;;;;4987567;28;20027;-75
2023/03/12 13:59:52;;;;;;;33.78;8.98;;;;;;;;;;4970409;28;20510;-84
2023/03/12 14:02:27;;;;;;;35.25;6.35;;;;;;;;;;4985402;28;20057;-87
2023/03/12 14:04:54;;;;;;;36.13;6.50;;;;;;;;;;4989775;28;20049;-83
2023/03/12 14:07:20;;;;;;;40.05;7.18;;;;;;;;;;4994007;28;20388;-91
2023/03/12 14:10:24;;;;;;;31.10;5.40;;;;;;;;;;4985464;28;20442;-83
2023/03/12 14:12:59;;;;;;;33.78;5.90;;;;;;;;;;4914312;29;20036;-87
2023/03/12 14:15:25;;;;;;;41.03;6.00;;;;;;;;;;4908405;29;20048;-81
2023/03/12 14:17:55;;;;;;;30.45;5.60;;;;;;;;;;4940227;28;20053;-86
2023/03/12 14:20:22;;;;;;;37.60;8.27;;;;;;;;;;4975541;28;20042;-82
2023/03/12 14:22:55;;;;;;;40.13;6.60;;;;;;;;;;4972502;28;20041;-89
2023/03/12 14:25:28;;;;;;;32.90;5.40;;;;;;;;;;4987101;28;20033;-87
2023/03/12 14:27:54;;;;;;;33.45;5.45;;;;;;;;;;4988116;28;20042;-83
2023/03/12 14:30:44;;;;;;;40.25;6.80;;;;;;;;;;4985006;28;20058;-86
2023/03/12 14:33:11;;;;;;;45.03;7.85;;;;;;;;;;4965750;28;20046;-84
2023/03/12 14:35:43;;;;;;;36.47;7.72;;;;;;;;;;4985544;28;20486;-86
2023/03/12 14:38:25;;;;;;;38.28;6.18;;;;;;;;;;4990031;28;20122;-86
2023/03/12 14:41:12;;;;;;;32.53;6.60;;;;;;;;;;4985039;28;20034;-81
2023/03/12 14:43:38;;;;;;;33.97;6.55;;;;;;;;;;4991298;28;20034;-82